createdAt,value
2022-08-07T00:00:39.921Z,11.69
2022-08-07T00:03:27.040Z,11.63
2022-08-07T00:06:29.468Z,11.64
2022-08-07T00:09:21.334Z,11.58
2022-08-07T00:12:08.714Z,11.56
2022-08-07T00:14:56.259Z,11.56
2022-08-07T00:17:41.688Z,11.39
2022-08-07T00:20:29.757Z,11.47
2022-08-07T00:23:21.112Z,11.41
2022-08-07T00:26:18.500Z,11.46
2022-08-07T00:29:15.496Z,11.50
2022-08-07T00:32:01.854Z,11.50
2022-08-07T00:34:49.212Z,11.42
2022-08-07T00:37:47.623Z,11.26
2022-08-07T00:40:39.028Z,11.21
2022-08-07T00:44:01.535Z,11.24
2022-08-07T00:46:33.131Z,11.19
2022-08-07T00:49:24.856Z,11.25
2022-08-07T00:52:25.785Z,11.18
2022-08-07T00:55:11.271Z,11.19
2022-08-07T00:57:56.839Z,11.06
2022-08-07T01:00:53.745Z,10.91
2022-08-07T01:03:56.181Z,10.96
2022-08-07T01:06:45.965Z,10.82
2022-08-07T01:09:51.332Z,10.81
2022-08-07T01:12:39.923Z,10.75
2022-08-07T01:16:05.162Z,10.65
2022-08-07T01:18:46.109Z,10.62
2022-08-07T01:21:32.588Z,10.63
2022-08-07T01:24:22.797Z,10.66
2022-08-07T01:27:19.744Z,10.74
2022-08-07T01:30:07.038Z,10.81
2022-08-07T01:32:56.290Z,10.75
2022-08-07T01:35:53.828Z,10.63
2022-08-07T01:38:40.046Z,10.56
2022-08-07T01:41:27.714Z,10.59
2022-08-07T01:44:13.234Z,10.61
2022-08-07T01:46:58.791Z,10.50
2022-08-07T01:49:46.642Z,10.48
2022-08-07T01:52:49.397Z,10.45
2022-08-07T01:55:44.326Z,10.43
2022-08-07T01:58:34.150Z,10.40
2022-08-07T02:01:59.756Z,10.50
2022-08-07T02:04:56.199Z,10.47
2022-08-07T02:07:52.190Z,10.37
2022-08-07T02:10:42.284Z,10.26
2022-08-07T02:13:59.849Z,10.30
2022-08-07T02:16:39.456Z,10.30
2022-08-07T02:20:06.780Z,10.23
2022-08-07T02:22:32.401Z,10.20
2022-08-07T02:25:19.966Z,10.39
2022-08-07T02:28:28.560Z,10.30
2022-08-07T02:31:28.846Z,10.24
2022-08-07T02:34:17.300Z,10.12
2022-08-07T02:37:08.178Z,10.14
2022-08-07T02:40:02.159Z,10.15
2022-08-07T02:42:59.192Z,10.27
2022-08-07T02:46:00.544Z,10.30
2022-08-07T02:48:47.347Z,10.01
2022-08-07T02:51:52.288Z,10.10
2022-08-07T02:54:42.747Z,10.01
2022-08-07T02:57:32.509Z,9.89
2022-08-07T03:00:23.228Z,9.87
2022-08-07T03:03:13.589Z,10.00
2022-08-07T03:06:06.870Z,9.85
2022-08-07T03:09:07.538Z,9.84
2022-08-07T03:12:02.709Z,9.84
2022-08-07T03:14:52.447Z,9.87
2022-08-07T03:17:53.487Z,9.93
2022-08-07T03:20:40.702Z,9.93
2022-08-07T03:23:33.641Z,9.85
2022-08-07T03:26:35.938Z,9.84
2022-08-07T03:29:38.527Z,9.88
2022-08-07T03:32:39.025Z,9.72
2022-08-07T03:35:26.444Z,9.77
2022-08-07T03:38:13.485Z,9.74
2022-08-07T03:41:01.261Z,9.77
2022-08-07T03:43:56.963Z,9.73
2022-08-07T03:47:14.221Z,9.80
2022-08-07T03:49:52.445Z,9.75
2022-08-07T03:52:39.540Z,9.63
2022-08-07T03:55:52.905Z,9.69
2022-08-07T03:59:08.644Z,9.73
2022-08-07T04:01:45.584Z,9.78
2022-08-07T04:04:32.773Z,9.70
2022-08-07T04:07:22.822Z,9.71
2022-08-07T04:10:08.552Z,9.74
2022-08-07T04:13:02.479Z,9.74
2022-08-07T04:15:48.916Z,9.79
2022-08-07T04:18:59.293Z,9.79
2022-08-07T04:21:40.197Z,9.87
2022-08-07T04:24:46.305Z,9.89
2022-08-07T04:27:35.617Z,10.04
2022-08-07T04:30:36.021Z,10.05
2022-08-07T04:33:28.098Z,10.16
2022-08-07T04:36:14.386Z,10.14
2022-08-07T04:39:01.791Z,10.15
2022-08-07T04:41:50.396Z,10.21
2022-08-07T04:44:36.631Z,10.25
2022-08-07T04:48:05.574Z,10.44
2022-08-07T04:51:05.010Z,10.67
2022-08-07T04:54:11.072Z,10.83
2022-08-07T04:58:14.419Z,10.82
2022-08-07T05:00:40.883Z,10.94
2022-08-07T05:04:07.374Z,11.07
2022-08-07T05:06:55.653Z,11.08
2022-08-07T05:09:59.287Z,11.13
2022-08-07T05:12:58.611Z,11.31
2022-08-07T05:15:51.810Z,11.46
2022-08-07T05:19:11.959Z,11.59
2022-08-07T05:22:01.951Z,11.83
2022-08-07T05:24:55.483Z,11.98
2022-08-07T05:28:02.894Z,12.29
2022-08-07T05:30:48.931Z,12.62
2022-08-07T05:33:37.432Z,12.73
2022-08-07T05:36:30.304Z,12.89
2022-08-07T05:40:06.551Z,13.16
2022-08-07T05:42:34.422Z,13.44
2022-08-07T05:45:46.116Z,13.67
2022-08-07T05:48:30.109Z,13.89
2022-08-07T05:51:15.953Z,14.18
2022-08-07T05:54:13.264Z,14.27
2022-08-07T05:57:09.038Z,14.48
2022-08-07T05:59:57.143Z,14.67
2022-08-07T06:02:47.739Z,14.80
2022-08-07T06:05:34.323Z,15.10
2022-08-07T06:08:30.880Z,15.18
2022-08-07T06:11:17.873Z,15.47
2022-08-07T06:14:12.047Z,15.55
2022-08-07T06:17:00.929Z,15.70
2022-08-07T06:20:03.346Z,15.68
2022-08-07T06:23:02.409Z,16.01
2022-08-07T06:25:59.644Z,16.28
2022-08-07T06:28:50.183Z,16.55
2022-08-07T06:31:50.165Z,16.61
2022-08-07T06:34:35.995Z,17.01
2022-08-07T06:37:26.193Z,16.92
2022-08-07T06:40:45.762Z,17.38
2022-08-07T06:43:39.619Z,17.57
2022-08-07T06:46:31.273Z,17.51
2022-08-07T06:49:21.070Z,17.69
2022-08-07T06:52:10.246Z,18.02
2022-08-07T06:55:33.475Z,18.13
2022-08-07T06:58:04.920Z,18.30
2022-08-07T07:00:55.521Z,18.48
2022-08-07T07:03:50.248Z,18.63
2022-08-07T07:07:00.227Z,18.89
2022-08-07T07:09:48.022Z,19.08
2022-08-07T07:12:55.732Z,19.30
2022-08-07T07:15:51.536Z,19.44
2022-08-07T07:19:54.691Z,19.77
2022-08-07T07:22:36.639Z,20.02
2022-08-07T07:26:31.281Z,20.39
2022-08-07T07:29:22.821Z,20.58
2022-08-07T07:31:48.146Z,20.79
2022-08-07T07:34:36.323Z,20.83
2022-08-07T07:37:49.635Z,21.22
2022-08-07T07:40:34.023Z,21.16
2022-08-07T07:43:27.402Z,21.40
2022-08-07T07:46:37.635Z,21.43
2022-08-07T07:50:33.642Z,21.76
2022-08-07T07:52:47.685Z,22.15
2022-08-07T07:55:37.563Z,22.29
2022-08-07T07:58:36.869Z,22.42
2022-08-07T08:02:03.776Z,22.64
2022-08-07T08:04:36.286Z,22.85
2022-08-07T08:07:30.019Z,23.36
2022-08-07T08:10:35.683Z,23.25
2022-08-07T08:13:33.308Z,23.59
2022-08-07T08:16:36.916Z,23.62
2022-08-07T08:20:17.774Z,24.00
2022-08-07T08:22:56.277Z,24.51
2022-08-07T08:26:06.872Z,25.02
2022-08-07T08:28:55.744Z,25.48
2022-08-07T08:32:17.131Z,25.49
2022-08-07T08:34:49.777Z,25.61
2022-08-07T08:38:00.814Z,26.51
2022-08-07T08:40:53.499Z,27.18
2022-08-07T08:43:59.495Z,27.33
2022-08-07T08:47:03.060Z,27.92
2022-08-07T08:50:07.443Z,28.01
2022-08-07T08:53:04.839Z,28.16
2022-08-07T08:55:58.509Z,26.88
2022-08-07T08:59:06.537Z,27.01
2022-08-07T09:02:35.266Z,28.31
2022-08-07T09:05:43.981Z,29.11
2022-08-07T09:08:58.364Z,29.83
2022-08-07T09:12:20.242Z,30.01
2022-08-07T09:16:24.535Z,29.88
2022-08-07T09:18:53.429Z,31.06
2022-08-07T09:22:10.177Z,32.10
2022-08-07T09:25:17.499Z,31.91
2022-08-07T09:28:06.019Z,30.01
2022-08-07T09:31:25.082Z,31.12
2022-08-07T09:34:58.493Z,32.21
2022-08-07T09:37:58.061Z,32.55
2022-08-07T09:41:06.578Z,32.87
2022-08-07T09:44:32.874Z,33.80
2022-08-07T09:48:12.172Z,34.86
2022-08-07T09:52:16.157Z,35.77
2022-08-07T09:55:29.410Z,35.04
2022-08-07T09:58:41.531Z,34.90
2022-08-07T10:02:05.804Z,32.56
2022-08-07T10:05:58.997Z,32.70
2022-08-07T10:09:06.958Z,35.02
2022-08-07T10:12:19.618Z,36.55
2022-08-07T10:15:29.977Z,33.94
2022-08-07T10:18:36.219Z,34.64
2022-08-07T10:22:12.366Z,36.37
2022-08-07T10:25:06.943Z,37.79
2022-08-07T10:27:59.326Z,37.85
2022-08-07T10:31:06.072Z,37.76
2022-08-07T10:34:05.707Z,34.98
2022-08-07T10:37:06.377Z,32.82
2022-08-07T10:40:09.086Z,31.64
2022-08-07T10:43:02.327Z,33.25
2022-08-07T10:45:58.295Z,33.12
2022-08-07T10:49:02.278Z,36.12
2022-08-07T10:52:13.280Z,38.92
2022-08-07T10:55:26.531Z,39.99
2022-08-07T10:59:00.081Z,39.48
2022-08-07T11:02:05.528Z,41.23
2022-08-07T11:05:50.615Z,40.61
2022-08-07T11:08:54.606Z,37.58
2022-08-07T11:11:51.909Z,39.91
2022-08-07T11:15:00.212Z,39.67
2022-08-07T11:17:53.887Z,40.80
2022-08-07T11:20:49.671Z,40.41
2022-08-07T11:23:46.406Z,40.28
2022-08-07T11:26:38.513Z,42.74
2022-08-07T11:29:48.167Z,41.80
2022-08-07T11:32:54.200Z,42.05
2022-08-07T11:36:10.404Z,42.67
2022-08-07T11:39:09.537Z,35.69
2022-08-07T11:42:19.537Z,33.72
2022-08-07T11:45:36.404Z,34.53
2022-08-07T11:49:50.366Z,32.75
2022-08-07T11:52:29.135Z,35.26
2022-08-07T11:56:15.564Z,37.02
2022-08-07T11:58:53.866Z,37.25
2022-08-07T12:02:01.258Z,39.15
2022-08-07T12:05:41.780Z,39.57
2022-08-07T12:08:31.895Z,42.28
2022-08-07T12:11:32.424Z,41.26
2022-08-07T12:14:24.589Z,34.47
2022-08-07T12:17:19.822Z,33.17
2022-08-07T12:20:49.336Z,31.75
2022-08-07T12:24:06.209Z,34.65
2022-08-07T12:27:05.221Z,39.92
2022-08-07T12:30:04.530Z,42.94
2022-08-07T12:33:00.481Z,38.96
2022-08-07T12:35:57.775Z,34.24
2022-08-07T12:38:47.469Z,33.03
2022-08-07T12:41:51.652Z,32.86
2022-08-07T12:44:40.560Z,37.28
2022-08-07T12:48:02.296Z,40.61
2022-08-07T12:51:17.309Z,42.68
2022-08-07T12:54:37.142Z,41.11
2022-08-07T12:57:25.036Z,36.57
2022-08-07T13:00:16.641Z,34.62
2022-08-07T13:04:02.013Z,32.24
2022-08-07T13:07:06.315Z,33.62
2022-08-07T13:10:37.348Z,31.35
2022-08-07T13:13:57.325Z,30.73
2022-08-07T13:17:08.545Z,32.73
2022-08-07T13:20:34.923Z,37.08
2022-08-07T13:24:01.163Z,41.38
2022-08-07T13:27:10.536Z,43.00
2022-08-07T13:30:06.082Z,42.26
2022-08-07T13:34:32.179Z,42.30
2022-08-07T13:36:40.863Z,42.28
2022-08-07T13:40:32.779Z,41.17
2022-08-07T13:42:42.546Z,40.64
2022-08-07T13:46:12.108Z,40.00
2022-08-07T13:48:38.592Z,41.28
2022-08-07T13:51:28.232Z,40.54
2022-08-07T13:54:33.803Z,41.12
2022-08-07T13:57:26.341Z,36.72
2022-08-07T14:00:26.147Z,36.33
2022-08-07T14:03:13.862Z,36.21
2022-08-07T14:06:16.473Z,32.84
2022-08-07T14:09:05.336Z,31.08
2022-08-07T14:12:01.033Z,30.70
2022-08-07T14:15:01.431Z,33.52
2022-08-07T14:18:23.662Z,34.95
2022-08-07T14:21:11.741Z,32.56
2022-08-07T14:24:09.685Z,36.92
2022-08-07T14:26:58.489Z,39.02
2022-08-07T14:30:09.692Z,35.04
2022-08-07T14:33:01.699Z,34.38
2022-08-07T14:35:56.460Z,38.91
2022-08-07T14:38:50.428Z,39.74
2022-08-07T14:42:19.795Z,38.95
2022-08-07T14:44:49.270Z,38.42
2022-08-07T14:47:39.165Z,35.86
2022-08-07T14:50:29.158Z,35.15
2022-08-07T14:54:08.681Z,36.56
2022-08-07T14:56:33.088Z,38.74
2022-08-07T15:00:03.452Z,34.19
2022-08-07T15:02:34.204Z,31.45
2022-08-07T15:05:23.533Z,30.00
2022-08-07T15:08:12.521Z,30.28
2022-08-07T15:11:06.273Z,29.77
2022-08-07T15:13:58.963Z,30.89
2022-08-07T15:17:11.390Z,34.84
2022-08-07T15:20:32.857Z,33.96
2022-08-07T15:23:20.495Z,31.89
2022-08-07T15:26:09.112Z,30.77
2022-08-07T15:28:59.459Z,31.13
2022-08-07T15:35:16.859Z,30.20
2022-08-07T15:38:29.956Z,29.84
2022-08-07T15:44:24.712Z,31.49
2022-08-07T15:47:16.868Z,29.02
2022-08-07T15:50:11.523Z,28.71
2022-08-07T15:53:48.571Z,28.68
2022-08-07T15:56:40.598Z,29.60
2022-08-07T15:59:39.262Z,29.18
2022-08-07T16:02:35.436Z,28.78
2022-08-07T16:05:30.949Z,28.58
2022-08-07T16:08:33.089Z,28.14
2022-08-07T16:11:40.114Z,27.50
2022-08-07T16:14:35.053Z,26.88
2022-08-07T16:18:02.190Z,26.52
2022-08-07T16:22:02.126Z,26.70
2022-08-07T16:24:34.813Z,26.70
2022-08-07T16:27:40.607Z,26.62
2022-08-07T16:30:34.546Z,27.11
2022-08-07T16:34:03.017Z,26.60
2022-08-07T16:38:06.070Z,25.99
2022-08-07T16:41:02.724Z,25.59
2022-08-07T16:44:53.872Z,25.86
2022-08-07T16:47:51.407Z,25.91
2022-08-07T16:51:54.306Z,25.19
2022-08-07T16:54:22.969Z,25.33
2022-08-07T16:58:01.619Z,25.50
2022-08-07T17:00:44.223Z,25.27
2022-08-07T17:04:03.423Z,25.17
2022-08-07T17:07:08.500Z,24.94
2022-08-07T17:10:06.420Z,24.68
2022-08-07T17:13:41.390Z,24.37
2022-08-07T17:17:06.309Z,24.22
2022-08-07T17:20:03.020Z,24.15
2022-08-07T17:23:14.687Z,23.92
2022-08-07T17:26:23.452Z,23.70
2022-08-07T17:30:14.323Z,23.84
2022-08-07T17:32:31.338Z,23.90
2022-08-07T17:35:54.756Z,23.82
2022-08-07T17:39:10.592Z,23.67
2022-08-07T17:42:06.725Z,23.72
2022-08-07T17:44:58.389Z,23.53
2022-08-07T17:47:54.088Z,23.35
2022-08-07T17:51:01.722Z,23.19
2022-08-07T17:54:06.174Z,23.20
2022-08-07T17:57:01.381Z,23.00
2022-08-07T17:59:59.823Z,23.04
2022-08-07T18:03:18.181Z,23.10
2022-08-07T18:06:09.536Z,23.04
2022-08-07T18:09:48.292Z,22.99
2022-08-07T18:12:41.532Z,22.92
2022-08-07T18:15:58.670Z,22.88
2022-08-07T18:21:03.563Z,22.88
2022-08-07T18:22:06.260Z,22.73
2022-08-07T18:25:18.824Z,22.68
2022-08-07T18:28:36.046Z,22.79
2022-08-07T18:32:07.799Z,22.46
2022-08-07T18:35:25.302Z,22.23
2022-08-07T18:38:56.078Z,22.15
2022-08-07T18:41:53.994Z,22.11
2022-08-07T18:45:42.728Z,22.02
2022-08-07T18:50:06.766Z,21.78
2022-08-07T18:52:52.725Z,21.53
2022-08-07T18:55:40.486Z,21.72
2022-08-07T18:58:53.796Z,21.54
2022-08-07T19:02:18.264Z,21.37
2022-08-07T19:05:19.008Z,21.14
2022-08-07T19:08:58.627Z,21.06
2022-08-07T19:12:04.612Z,20.93
2022-08-07T19:16:03.020Z,20.80
2022-08-07T19:18:48.112Z,20.62
2022-08-07T19:22:08.568Z,20.37
2022-08-07T19:24:57.265Z,19.96
2022-08-07T19:30:53.559Z,19.87
2022-08-07T19:31:42.201Z,19.68
2022-08-07T19:34:04.993Z,19.37
2022-08-07T19:36:57.925Z,19.43
2022-08-07T19:40:06.437Z,19.39
2022-08-07T19:42:55.657Z,19.41
2022-08-07T19:46:05.565Z,19.33
2022-08-07T19:48:59.587Z,19.07
2022-08-07T19:51:52.424Z,18.82
2022-08-07T19:54:55.673Z,18.73
2022-08-07T19:58:03.483Z,18.57
2022-08-07T20:00:55.926Z,18.47
2022-08-07T20:03:42.093Z,18.50
2022-08-07T20:06:31.054Z,18.43
2022-08-07T20:10:12.598Z,18.31
2022-08-07T20:12:31.770Z,18.14
2022-08-07T20:15:24.646Z,18.18
2022-08-07T20:18:19.951Z,18.16
2022-08-07T20:21:21.363Z,17.98
2022-08-07T20:24:14.672Z,18.03
2022-08-07T20:27:03.159Z,17.72
2022-08-07T20:30:00.373Z,17.52
2022-08-07T20:32:47.576Z,17.49
2022-08-07T20:36:01.355Z,17.66
2022-08-07T20:38:59.981Z,17.36
2022-08-07T20:41:52.573Z,17.20
2022-08-07T20:44:42.384Z,17.07
2022-08-07T20:47:56.278Z,17.00
2022-08-07T20:50:39.777Z,17.02
2022-08-07T20:54:03.693Z,17.10
2022-08-07T20:56:41.966Z,17.06
2022-08-07T21:00:06.405Z,17.05
2022-08-07T21:02:57.995Z,17.13
2022-08-07T21:05:56.827Z,16.97
2022-08-07T21:08:46.640Z,16.83
2022-08-07T21:11:46.105Z,16.58
2022-08-07T21:14:40.923Z,16.44
2022-08-07T21:18:02.150Z,16.43
2022-08-07T21:20:48.004Z,16.29
2022-08-07T21:24:00.607Z,16.11
2022-08-07T21:27:01.050Z,16.05
2022-08-07T21:30:06.153Z,15.92
2022-08-07T21:33:16.375Z,16.07
2022-08-07T21:36:34.576Z,16.07
2022-08-07T21:39:46.084Z,16.02
2022-08-07T21:43:08.168Z,16.05
2022-08-07T21:46:25.317Z,15.98
2022-08-07T21:49:26.737Z,16.03
2022-08-07T21:52:38.458Z,16.03
2022-08-07T21:55:58.062Z,15.91
2022-08-07T21:58:56.230Z,15.78
2022-08-07T22:02:11.050Z,15.83
2022-08-07T22:05:00.176Z,15.71
2022-08-07T22:07:59.588Z,15.68
2022-08-07T22:10:49.667Z,15.61
2022-08-07T22:13:52.442Z,15.78
2022-08-07T22:17:03.939Z,15.71
2022-08-07T22:20:48.222Z,15.73
2022-08-07T22:23:44.909Z,15.67
2022-08-07T22:26:44.898Z,15.63
2022-08-07T22:29:47.516Z,15.39
2022-08-07T22:32:57.755Z,15.14
2022-08-07T22:35:55.883Z,15.16
2022-08-07T22:38:52.263Z,15.26
2022-08-07T22:42:04.064Z,15.25
2022-08-07T22:45:11.053Z,15.00
2022-08-07T22:48:54.638Z,14.89
2022-08-07T22:51:36.536Z,14.98
2022-08-07T22:54:55.317Z,14.90
2022-08-07T22:58:10.339Z,14.94
2022-08-07T23:01:19.008Z,14.83
2022-08-07T23:04:07.324Z,14.60
2022-08-07T23:07:17.690Z,14.32
2022-08-07T23:10:47.890Z,14.30
2022-08-07T23:14:10.490Z,14.31
2022-08-07T23:17:01.969Z,14.30
2022-08-07T23:20:05.619Z,14.41
2022-08-07T23:23:10.029Z,14.53
2022-08-07T23:26:26.050Z,14.41
2022-08-07T23:29:43.954Z,14.36
2022-08-07T23:34:35.500Z,14.28
2022-08-07T23:36:43.190Z,14.37
2022-08-07T23:39:41.169Z,14.35
2022-08-07T23:42:41.380Z,14.22
2022-08-07T23:46:03.302Z,14.11
2022-08-07T23:49:20.436Z,14.02
2022-08-07T23:52:59.569Z,14.00
2022-08-07T23:55:52.638Z,14.28
2022-08-07T23:58:58.341Z,14.04
